Harrisburg Junction, Utah
Current Conditions -  °F | °C
As of 3:35 PM on Tuesday 21 Oct 2014 (Local Time) from KSGU Reporting Station
Few Clouds Few Clouds  
Wind Chill: 81°   Ceiling: Unl
Heat Index: 81°   Visibility: 10mi
Dew Point: 43°   Wind: 13mph
Humidity: 26%   Direction: 260°W
Pressure: 29.87"   Gusts: NA
Location:  37.1317°N, 113.795°W
Report Text: KSGU 212135Z AUTO 26011KT 10SM FEW085 27/06 A2987 RMK AO1
Loading
Personal Weather Stations






























Interactive Weather Map
Tropical Storm Tracking
New forecast layout! Learn more

10-Day Weather Forecast

Advertisements
Track Severe Weather on mobile